Time;durP1;ratioP1;P1;durP2;ratioP2;P2;SDS_P1;SDS_P2;PMS_P1;PMS_P2;Temp;Humidity;BMP_temperature;BMP_pressure;BME280_temperature;BME280_humidity;BME280_pressure;Samples;Min_cycle;Max_cycle;Signal;HPM_P1;HPM_P2
2024/01/10 00:00:50;;;;;;;0.35;0.35;;;-7.10;99.90;;;;;;4997493;28;20168;-65
2024/01/10 00:03:15;;;;;;;0.00;0.00;;;-7.10;99.90;;;;;;4995620;28;20108;-65
2024/01/10 00:05:41;;;;;;;0.00;0.00;;;-7.10;99.90;;;;;;4996157;28;20532;-65
2024/01/10 00:08:07;;;;;;;0.00;0.00;;;-7.10;99.90;;;;;;4996425;28;20120;-65
2024/01/10 00:10:32;;;;;;;0.00;0.00;;;-7.10;99.90;;;;;;4994948;28;20036;-65
2024/01/10 00:12:58;;;;;;;0.00;0.00;;;-7.10;99.90;;;;;;4994964;28;20030;-65
2024/01/10 00:15:24;;;;;;;0.00;0.00;;;-7.10;99.90;;;;;;4995743;28;20603;-65
2024/01/10 00:17:50;;;;;;;0.07;0.07;;;-7.20;99.90;;;;;;4995670;28;20022;-65
2024/01/10 00:20:15;;;;;;;0.00;0.00;;;-7.10;99.90;;;;;;4992879;28;20033;-65
2024/01/10 00:22:41;;;;;;;0.00;0.00;;;-7.20;99.90;;;;;;4995012;28;20109;-67
2024/01/10 00:25:07;;;;;;;0.00;0.00;;;-7.10;99.90;;;;;;4993435;28;20042;-65
2024/01/10 00:27:33;;;;;;;0.22;0.22;;;-7.10;99.90;;;;;;4993980;28;20034;-65
2024/01/10 00:29:59;;;;;;;0.03;0.03;;;-7.20;99.90;;;;;;4997566;28;20034;-65
2024/01/10 00:32:24;;;;;;;0.00;0.00;;;-7.20;99.90;;;;;;4994917;28;20746;-65
2024/01/10 00:34:50;;;;;;;0.00;0.00;;;-7.20;99.90;;;;;;4996397;28;20025;-65
2024/01/10 00:37:16;;;;;;;0.00;0.00;;;-7.20;99.90;;;;;;4992125;28;20050;-65
2024/01/10 00:39:41;;;;;;;0.00;0.00;;;-7.20;99.90;;;;;;4990901;28;20034;-65
2024/01/10 00:42:07;;;;;;;0.00;0.00;;;-7.20;99.90;;;;;;4997019;28;20079;-65
2024/01/10 00:44:33;;;;;;;0.00;0.00;;;-7.30;99.90;;;;;;4988679;28;20029;-65
2024/01/10 00:46:58;;;;;;;0.00;0.00;;;-7.20;99.90;;;;;;4994614;28;20037;-65
2024/01/10 00:49:24;;;;;;;0.00;0.00;;;-7.20;99.90;;;;;;4993938;28;20035;-65
2024/01/10 00:51:51;;;;;;;0.00;0.00;;;-7.30;99.90;;;;;;4988495;28;20156;-65
2024/01/10 00:54:18;;;;;;;0.00;0.00;;;-7.30;99.90;;;;;;4994571;28;20533;-65
2024/01/10 00:56:44;;;;;;;0.00;0.00;;;-7.30;99.90;;;;;;4995066;28;20029;-65
2024/01/10 00:59:11;;;;;;;0.00;0.00;;;-7.30;99.90;;;;;;4990914;28;20037;-65
2024/01/10 01:01:37;;;;;;;0.00;0.00;;;-7.30;99.90;;;;;;4998077;28;20032;-65
2024/01/10 01:04:04;;;;;;;0.00;0.00;;;-7.30;99.90;;;;;;4993832;28;20084;-65
2024/01/10 01:06:30;;;;;;;0.00;0.00;;;-7.40;99.90;;;;;;4994572;28;20038;-65
2024/01/10 01:08:58;;;;;;;0.00;0.00;;;-7.40;99.90;;;;;;4994810;28;20022;-65
2024/01/10 01:11:25;;;;;;;0.00;0.00;;;-7.30;99.90;;;;;;4994140;28;20037;-65
2024/01/10 01:13:51;;;;;;;2.05;1.55;;;-7.30;99.90;;;;;;4994021;28;20033;-66
2024/01/10 01:16:17;;;;;;;0.00;0.00;;;-7.30;99.90;;;;;;4993985;28;20330;-65
2024/01/10 01:18:45;;;;;;;0.00;0.00;;;-7.30;99.90;;;;;;4995264;28;20026;-65
2024/01/10 01:21:12;;;;;;;0.00;0.00;;;-7.30;99.90;;;;;;4994696;28;20033;-64
2024/01/10 01:23:38;;;;;;;0.05;0.05;;;-7.20;99.90;;;;;;4991599;28;20071;-65
2024/01/10 01:26:04;;;;;;;0.00;0.00;;;-7.30;99.90;;;;;;4996304;28;20068;-64
2024/01/10 01:28:30;;;;;;;0.00;0.00;;;-7.30;99.90;;;;;;4996832;28;20061;-65
2024/01/10 01:30:56;;;;;;;0.00;0.00;;;-7.40;99.90;;;;;;4996326;28;20786;-65
2024/01/10 01:33:21;;;;;;;0.00;0.00;;;-7.40;99.90;;;;;;4998414;28;20026;-66
2024/01/10 01:35:47;;;;;;;0.00;0.00;;;-7.40;99.90;;;;;;4999301;28;20030;-64
2024/01/10 01:38:14;;;;;;;0.05;0.05;;;-7.40;99.90;;;;;;4997018;28;20133;-64
2024/01/10 01:40:40;;;;;;;0.00;0.00;;;-7.40;99.90;;;;;;4998668;28;20033;-65
2024/01/10 01:43:22;;;;;;;0.20;0.20;;;-7.40;99.90;;;;;;5000007;28;20028;-63
2024/01/10 01:45:54;;;;;;;0.00;0.00;;;-7.40;99.90;;;;;;4995587;28;20053;-64
2024/01/10 01:48:21;;;;;;;0.00;0.00;;;-7.40;99.90;;;;;;4991221;28;20052;-64
2024/01/10 01:50:50;;;;;;;0.00;0.00;;;-7.40;99.90;;;;;;4996540;28;20104;-64
2024/01/10 01:53:17;;;;;;;0.00;0.00;;;-7.40;99.90;;;;;;5002573;28;20041;-64
2024/01/10 01:55:45;;;;;;;0.00;0.00;;;-7.40;99.90;;;;;;4998982;28;20022;-64
2024/01/10 01:58:12;;;;;;;0.00;0.00;;;-7.40;99.90;;;;;;5001356;28;20523;-64
2024/01/10 02:00:38;;;;;;;0.00;0.00;;;-7.40;99.90;;;;;;4997892;28;20024;-64
2024/01/10 02:03:09;;;;;;;0.10;0.10;;;-7.30;99.90;;;;;;4997922;28;20033;-64
2024/01/10 02:05:35;;;;;;;0.00;0.00;;;-7.30;99.90;;;;;;4996059;28;20104;-63
2024/01/10 02:08:01;;;;;;;0.00;0.00;;;-7.40;99.90;;;;;;5000606;28;20030;-64
2024/01/10 02:10:27;;;;;;;0.00;0.00;;;-7.40;99.90;;;;;;4999649;28;20044;-63
2024/01/10 02:12:53;;;;;;;0.03;0.03;;;-7.40;99.90;;;;;;4994741;28;20910;-64
2024/01/10 02:15:19;;;;;;;0.08;0.08;;;-7.40;99.90;;;;;;5001235;28;20627;-64
2024/01/10 02:17:44;;;;;;;0.00;0.00;;;-7.40;99.90;;;;;;5018359;28;20120;-65
2024/01/10 02:20:12;;;;;;;0.00;0.00;;;-7.50;99.90;;;;;;4999798;28;20022;-63
2024/01/10 02:22:38;;;;;;;0.03;0.03;;;-7.50;99.90;;;;;;4998205;28;20034;-63
2024/01/10 02:25:11;;;;;;;0.00;0.00;;;-7.50;99.90;;;;;;4995556;28;20040;-66
2024/01/10 02:27:37;;;;;;;0.00;0.00;;;-7.50;99.90;;;;;;4999606;28;20030;-64
2024/01/10 02:30:05;;;;;;;0.00;0.00;;;-7.50;99.90;;;;;;5005370;28;20077;-64
2024/01/10 02:32:31;;;;;;;0.00;0.00;;;-7.50;99.90;;;;;;5025727;28;20499;-63
2024/01/10 02:34:57;;;;;;;0.32;0.32;;;-7.50;99.90;;;;;;4994063;28;20701;-63
2024/01/10 02:37:22;;;;;;;0.00;0.00;;;-7.50;99.90;;;;;;4995999;28;20091;-63
2024/01/10 02:39:48;;;;;;;0.40;0.40;;;-7.50;99.90;;;;;;4998370;28;20030;-64
2024/01/10 02:42:14;;;;;;;0.40;0.40;;;-7.50;99.90;;;;;;4999655;28;20413;-64
2024/01/10 02:44:40;;;;;;;0.00;0.00;;;-7.50;99.90;;;;;;4999590;28;20045;-64
2024/01/10 02:47:06;;;;;;;0.00;0.00;;;-7.50;99.90;;;;;;4996071;28;20501;-64
2024/01/10 02:49:32;;;;;;;;;;;-7.50;99.90;;;;;;5001309;28;20033;-65
2024/01/10 02:51:58;;;;;;;0.10;0.10;;;-7.60;99.90;;;;;;4993648;28;19913;-64
2024/01/10 02:54:24;;;;;;;0.00;0.00;;;-7.50;99.90;;;;;;4993901;28;20050;-64
2024/01/10 02:56:50;;;;;;;0.00;0.00;;;-7.60;99.90;;;;;;4989984;28;20265;-64
2024/01/10 02:59:15;;;;;;;0.00;0.00;;;-7.60;99.90;;;;;;4998097;28;20036;-65
2024/01/10 03:01:41;;;;;;;0.20;0.10;;;-7.60;99.90;;;;;;4994334;28;20019;-64
2024/01/10 03:04:07;;;;;;;0.00;0.00;;;-7.60;99.90;;;;;;4996746;28;20014;-64
2024/01/10 03:06:32;;;;;;;0.00;0.00;;;-7.60;99.90;;;;;;4999811;28;20069;-64
2024/01/10 03:08:58;;;;;;;0.00;0.00;;;-7.60;99.90;;;;;;5001057;28;20022;-64
2024/01/10 03:11:24;;;;;;;0.00;0.00;;;-7.60;99.90;;;;;;4998470;28;20026;-64
2024/01/10 03:13:52;;;;;;;0.00;0.00;;;-7.60;99.90;;;;;;5003033;28;20033;-64
2024/01/10 03:16:18;;;;;;;0.00;0.00;;;-7.70;99.90;;;;;;5012663;28;20030;-65
2024/01/10 03:18:44;;;;;;;0.00;0.00;;;-7.70;99.90;;;;;;4997963;28;20104;-64
2024/01/10 03:21:09;;;;;;;0.03;0.03;;;-7.60;99.90;;;;;;4992414;28;20112;-64
2024/01/10 03:23:35;;;;;;;0.00;0.00;;;-7.70;99.90;;;;;;4996412;28;20105;-64
2024/01/10 03:26:01;;;;;;;0.00;0.00;;;-7.70;99.90;;;;;;4991158;28;20050;-63
2024/01/10 03:28:26;;;;;;;0.00;0.00;;;-7.70;99.90;;;;;;4999926;28;20049;-66
2024/01/10 03:30:52;;;;;;;0.00;0.00;;;-7.70;99.90;;;;;;4998273;28;20034;-64
2024/01/10 03:33:18;;;;;;;0.00;0.00;;;-7.70;99.90;;;;;;4998055;28;20057;-66
2024/01/10 03:35:43;;;;;;;0.00;0.00;;;-7.70;99.90;;;;;;4993205;28;20393;-64
2024/01/10 03:38:09;;;;;;;0.00;0.00;;;-7.70;99.90;;;;;;4996457;28;20109;-64
2024/01/10 03:40:35;;;;;;;0.00;0.00;;;-7.70;99.90;;;;;;4995631;28;20026;-65
2024/01/10 03:43:01;;;;;;;0.00;0.00;;;-7.80;99.90;;;;;;4996419;28;20025;-65
2024/01/10 03:45:26;;;;;;;0.00;0.00;;;-7.80;99.90;;;;;;4996794;28;20033;-65
2024/01/10 03:47:52;;;;;;;0.63;0.63;;;-7.70;99.90;;;;;;4998263;28;20030;-65
2024/01/10 03:50:19;;;;;;;0.00;0.00;;;-7.80;99.90;;;;;;4992805;28;20365;-65
2024/01/10 03:52:45;;;;;;;0.00;0.00;;;-7.80;99.90;;;;;;4993299;28;20041;-65
2024/01/10 03:55:13;;;;;;;0.00;0.00;;;-7.70;99.90;;;;;;4992297;28;20319;-65
2024/01/10 03:57:39;;;;;;;0.00;0.00;;;-7.80;99.90;;;;;;4998785;28;20029;-65
2024/01/10 04:00:06;;;;;;;0.20;0.20;;;-7.80;99.90;;;;;;4992864;28;20030;-66
2024/01/10 04:02:32;;;;;;;0.00;0.00;;;-7.80;99.90;;;;;;4996632;28;20026;-65
2024/01/10 04:04:58;;;;;;;0.00;0.00;;;-7.80;99.90;;;;;;5003093;28;20030;-65
2024/01/10 04:07:23;;;;;;;0.00;0.00;;;-7.80;99.90;;;;;;4998082;28;20504;-65
2024/01/10 04:09:49;;;;;;;0.00;0.00;;;-7.80;99.90;;;;;;4998095;28;20040;-65
2024/01/10 04:12:15;;;;;;;0.00;0.00;;;-7.80;99.90;;;;;;4996691;28;20036;-65
2024/01/10 04:14:41;;;;;;;0.00;0.00;;;-7.90;99.90;;;;;;4996935;28;20026;-65
2024/01/10 04:17:08;;;;;;;0.00;0.00;;;-7.90;99.90;;;;;;4997518;28;20051;-65
2024/01/10 04:19:33;;;;;;;0.00;0.00;;;-7.90;99.90;;;;;;4997056;28;20100;-65
2024/01/10 04:21:59;;;;;;;0.00;0.00;;;-8.00;99.90;;;;;;4996230;28;20108;-65
2024/01/10 04:24:25;;;;;;;0.00;0.00;;;-7.90;99.90;;;;;;4995733;28;20457;-65
2024/01/10 04:26:50;;;;;;;0.00;0.00;;;-7.90;99.90;;;;;;4995374;28;20232;-65
2024/01/10 04:29:16;;;;;;;0.00;0.00;;;-8.00;99.90;;;;;;4993010;28;20489;-65
2024/01/10 04:31:42;;;;;;;0.00;0.00;;;-8.00;99.90;;;;;;4997788;28;20041;-65
2024/01/10 04:34:08;;;;;;;0.00;0.00;;;-8.00;99.90;;;;;;4997478;28;20143;-65
2024/01/10 04:36:34;;;;;;;0.00;0.00;;;-7.90;99.90;;;;;;4995845;28;20060;-65
2024/01/10 04:38:59;;;;;;;0.00;0.00;;;-7.90;99.90;;;;;;4992271;28;20103;-65
2024/01/10 04:41:25;;;;;;;0.00;0.00;;;-7.90;99.90;;;;;;5001528;28;20016;-65
2024/01/10 04:43:51;;;;;;;0.00;0.00;;;-7.90;99.90;;;;;;4995950;28;20034;-65
2024/01/10 04:46:17;;;;;;;0.00;0.00;;;-7.90;99.90;;;;;;4995278;28;20025;-65
2024/01/10 04:48:43;;;;;;;0.00;0.00;;;-7.90;99.90;;;;;;4994604;28;20030;-65
2024/01/10 04:51:09;;;;;;;0.00;0.00;;;-7.80;99.90;;;;;;4997364;28;20797;-65
2024/01/10 04:53:34;;;;;;;0.10;0.10;;;-7.90;99.90;;;;;;4994185;28;20026;-65
2024/01/10 04:56:00;;;;;;;0.00;0.00;;;-7.90;99.90;;;;;;5027528;28;20022;-65
2024/01/10 04:58:26;;;;;;;0.00;0.00;;;-7.90;99.90;;;;;;4995829;28;20109;-66
2024/01/10 05:00:52;;;;;;;0.00;0.00;;;-7.90;99.90;;;;;;4998261;28;20689;-66
2024/01/10 05:03:17;;;;;;;0.00;0.00;;;-7.90;99.90;;;;;;4997360;28;20041;-66
2024/01/10 05:05:43;;;;;;;2.17;2.07;;;-7.90;99.90;;;;;;4992379;28;20454;-65
2024/01/10 05:08:09;;;;;;;0.00;0.00;;;-7.90;99.90;;;;;;4998525;28;20036;-65
2024/01/10 05:10:34;;;;;;;0.00;0.00;;;-7.90;99.90;;;;;;5000007;28;20549;-65
2024/01/10 05:13:00;;;;;;;0.10;0.10;;;-7.90;99.90;;;;;;5001236;28;20117;-66
2024/01/10 05:15:26;;;;;;;0.00;0.00;;;-7.90;99.90;;;;;;5004815;28;20057;-65
2024/01/10 05:17:52;;;;;;;0.00;0.00;;;-7.90;99.90;;;;;;4998812;28;20057;-65
2024/01/10 05:20:18;;;;;;;0.00;0.00;;;-7.80;99.90;;;;;;5014411;28;20040;-65
2024/01/10 05:22:44;;;;;;;0.00;0.00;;;-7.80;99.90;;;;;;5000122;28;20022;-65
2024/01/10 05:25:09;;;;;;;0.00;0.00;;;-7.80;99.90;;;;;;5001236;28;20073;-65
2024/01/10 05:27:35;;;;;;;0.00;0.00;;;-7.80;99.90;;;;;;5001156;28;20057;-65
2024/01/10 05:30:01;;;;;;;0.00;0.00;;;-7.80;99.90;;;;;;4997606;28;20040;-65
2024/01/10 05:32:27;;;;;;;0.00;0.00;;;-7.80;99.90;;;;;;5006027;28;20026;-66
2024/01/10 05:34:53;;;;;;;0.00;0.00;;;-7.70;99.90;;;;;;4996133;28;20109;-65
2024/01/10 05:37:19;;;;;;;0.00;0.00;;;-7.70;99.90;;;;;;4999017;28;20265;-65
2024/01/10 05:39:45;;;;;;;0.00;0.00;;;-7.70;99.90;;;;;;5011301;28;20029;-66
2024/01/10 05:42:11;;;;;;;0.00;0.00;;;-7.70;99.90;;;;;;4999886;28;20033;-66
2024/01/10 05:44:36;;;;;;;0.00;0.00;;;-7.70;99.90;;;;;;4995227;28;20040;-65
2024/01/10 05:47:02;;;;;;;0.00;0.00;;;-7.70;99.90;;;;;;5000856;28;20140;-65
2024/01/10 05:49:28;;;;;;;0.00;0.00;;;-7.60;99.90;;;;;;5003031;28;20026;-66
2024/01/10 05:51:54;;;;;;;0.00;0.00;;;-7.60;99.90;;;;;;4999701;28;20026;-66
2024/01/10 05:54:20;;;;;;;0.00;0.00;;;-7.60;99.90;;;;;;4999031;28;20053;-65
2024/01/10 05:56:45;;;;;;;0.00;0.00;;;-7.50;99.90;;;;;;4999509;28;20022;-66
2024/01/10 05:59:11;;;;;;;0.00;0.00;;;-7.50;99.90;;;;;;4994800;28;20096;-65
2024/01/10 06:01:40;;;;;;;0.10;0.10;;;-7.50;99.90;;;;;;5000995;28;20018;-66
2024/01/10 06:04:05;;;;;;;0.10;0.10;;;-7.40;99.90;;;;;;4999050;28;20030;-65
2024/01/10 06:06:32;;;;;;;0.00;0.00;;;-7.40;99.90;;;;;;4999212;28;20034;-66
2024/01/10 06:08:58;;;;;;;0.00;0.00;;;-7.40;99.90;;;;;;4999987;28;20469;-66
2024/01/10 06:11:23;;;;;;;0.00;0.00;;;-7.40;99.90;;;;;;5000417;28;20029;-65
2024/01/10 06:13:49;;;;;;;0.03;0.03;;;-7.30;99.90;;;;;;5000209;28;20063;-65
2024/01/10 06:16:16;;;;;;;0.00;0.00;;;-7.40;99.90;;;;;;4999178;28;20025;-66
2024/01/10 06:18:41;;;;;;;0.00;0.00;;;-7.40;99.90;;;;;;4998914;28;20132;-65
2024/01/10 06:21:08;;;;;;;0.00;0.00;;;-7.40;99.90;;;;;;5020291;28;20144;-66
2024/01/10 06:23:33;;;;;;;0.00;0.00;;;-7.40;99.90;;;;;;4997280;28;20029;-66
2024/01/10 06:25:59;;;;;;;0.00;0.00;;;-7.30;99.90;;;;;;4999507;28;20691;-66
2024/01/10 06:28:25;;;;;;;0.00;0.00;;;-7.40;99.90;;;;;;4997703;28;20064;-66
2024/01/10 06:30:50;;;;;;;0.00;0.00;;;-7.40;99.90;;;;;;4997302;28;20026;-66
2024/01/10 06:33:16;;;;;;;0.00;0.00;;;-6.70;99.90;;;;;;4998131;28;20032;-66
2024/01/10 06:35:43;;;;;;;0.00;0.00;;;-6.80;99.90;;;;;;4999323;28;20164;-65
2024/01/10 06:38:11;;;;;;;;;;;-6.90;99.90;;;;;;4996273;28;21367;-65
2024/01/10 06:40:37;;;;;;;0.10;0.10;;;-6.90;99.90;;;;;;4998532;28;19917;-65
2024/01/10 06:43:04;;;;;;;0.00;0.00;;;-7.00;99.90;;;;;;4999169;28;20030;-66
2024/01/10 06:45:29;;;;;;;0.10;0.10;;;-7.10;99.90;;;;;;4998495;28;20112;-65
2024/01/10 06:47:57;;;;;;;1.53;1.50;;;-7.00;99.90;;;;;;5000583;28;20844;-65
2024/01/10 06:50:23;;;;;;;0.00;0.00;;;-7.00;99.90;;;;;;4995414;28;20498;-66
2024/01/10 06:52:49;;;;;;;0.00;0.00;;;-6.90;99.90;;;;;;4999171;28;20088;-66
2024/01/10 06:55:15;;;;;;;1.10;0.90;;;-6.80;99.90;;;;;;4995626;28;20037;-65
2024/01/10 06:57:41;;;;;;;0.00;0.00;;;-6.70;99.90;;;;;;4999634;28;20029;-66
2024/01/10 07:00:10;;;;;;;0.00;0.00;;;-6.70;99.90;;;;;;4999218;28;20018;-65
2024/01/10 07:02:37;;;;;;;0.00;0.00;;;-6.60;99.90;;;;;;4997717;28;20030;-65
2024/01/10 07:05:06;;;;;;;;;;;-6.60;99.90;;;;;;5001277;28;20038;-66
2024/01/10 07:07:32;;;;;;;0.00;0.00;;;-6.50;99.90;;;;;;4998133;28;20353;-66
2024/01/10 07:09:57;;;;;;;0.67;0.67;;;-6.20;99.90;;;;;;4998151;28;20057;-66
2024/01/10 07:12:23;;;;;;;0.00;0.00;;;-5.90;99.90;;;;;;4996766;28;20416;-65
2024/01/10 07:14:49;;;;;;;0.00;0.00;;;-5.30;99.90;;;;;;4998845;28;20026;-66
2024/01/10 07:17:14;;;;;;;0.13;0.13;;;-4.80;99.90;;;;;;4999162;28;20057;-66
2024/01/10 07:19:40;;;;;;;0.00;0.00;;;-4.30;99.90;;;;;;4996245;28;20109;-66
2024/01/10 07:22:06;;;;;;;0.00;0.00;;;-3.80;99.90;;;;;;4998133;28;20045;-66
2024/01/10 07:24:31;;;;;;;0.63;0.63;;;-3.50;99.90;;;;;;5023203;28;20065;-66
2024/01/10 07:26:57;;;;;;;1.37;1.23;;;-3.10;99.90;;;;;;4999903;28;20022;-66
2024/01/10 07:29:22;;;;;;;0.77;0.77;;;-2.80;99.90;;;;;;4995339;28;20022;-66
2024/01/10 07:31:48;;;;;;;0.30;0.30;;;-2.50;99.90;;;;;;5001195;28;20133;-67
2024/01/10 07:34:14;;;;;;;0.07;0.07;;;-2.20;99.90;;;;;;4997689;28;20521;-65
2024/01/10 07:36:42;;;;;;;1.35;1.35;;;-2.30;99.90;;;;;;4999974;28;20108;-66
2024/01/10 07:39:08;;;;;;;0.65;0.65;;;-2.30;99.90;;;;;;4996146;28;20157;-66
2024/01/10 07:41:33;;;;;;;0.00;0.00;;;-2.10;99.90;;;;;;5025266;28;20109;-66
2024/01/10 07:43:59;;;;;;;0.00;0.00;;;-2.10;99.90;;;;;;4997674;28;20149;-66
2024/01/10 07:46:26;;;;;;;0.00;0.00;;;-2.10;99.90;;;;;;4999798;28;20025;-67
2024/01/10 07:48:52;;;;;;;2.70;1.13;;;-2.10;99.90;;;;;;4994893;28;20087;-66
2024/01/10 07:51:19;;;;;;;0.20;0.20;;;-2.30;99.90;;;;;;4998072;28;20037;-66
2024/01/10 07:53:45;;;;;;;0.00;0.00;;;-2.20;99.90;;;;;;4993206;28;20404;-66
2024/01/10 07:56:12;;;;;;;0.00;0.00;;;-2.60;99.90;;;;;;5002103;28;20167;-66
2024/01/10 07:58:38;;;;;;;0.00;0.00;;;-2.60;99.90;;;;;;4995532;28;20022;-66
2024/01/10 08:01:04;;;;;;;0.35;0.35;;;-2.50;99.90;;;;;;5000496;28;20033;-65
2024/01/10 08:03:30;;;;;;;0.00;0.00;;;-2.50;99.90;;;;;;5000912;28;20088;-66
2024/01/10 08:05:56;;;;;;;0.07;0.07;;;-2.80;99.90;;;;;;4998325;28;20033;-66
2024/01/10 08:08:22;;;;;;;0.60;0.60;;;-2.80;99.90;;;;;;4999988;28;20511;-66
2024/01/10 08:10:47;;;;;;;1.90;0.80;;;-3.00;99.90;;;;;;4995351;28;20265;-65
2024/01/10 08:13:13;;;;;;;0.00;0.00;;;-2.90;99.90;;;;;;4998123;28;20144;-65
2024/01/10 08:15:39;;;;;;;0.00;0.00;;;-2.80;99.90;;;;;;4995721;28;20431;-66
2024/01/10 08:18:05;;;;;;;1.00;0.37;;;-2.80;99.90;;;;;;5000750;28;20037;-66
2024/01/10 08:20:30;;;;;;;0.40;0.40;;;-2.80;99.90;;;;;;4995910;28;20576;-64
2024/01/10 08:22:57;;;;;;;0.40;0.40;;;-2.50;99.90;;;;;;4994596;28;20025;-64
2024/01/10 08:25:23;;;;;;;0.00;0.00;;;-1.80;99.90;;;;;;4997296;28;20099;-64
2024/01/10 08:27:49;;;;;;;3.73;0.73;;;-0.40;99.90;;;;;;4996403;28;20500;-64
2024/01/10 08:30:15;;;;;;;0.00;0.00;;;0.40;99.90;;;;;;5002359;28;20555;-64
2024/01/10 08:32:41;;;;;;;0.00;0.00;;;0.70;98.10;;;;;;5001977;28;20029;-64
2024/01/10 08:35:13;;;;;;;0.00;0.00;;;1.20;96.90;;;;;;5002868;28;20619;-65
2024/01/10 08:37:40;;;;;;;12.35;0.90;;;2.00;95.70;;;;;;4993691;28;20030;-65
2024/01/10 08:40:10;;;;;;;0.13;0.13;;;2.40;94.10;;;;;;4998051;28;20029;-64
2024/01/10 08:42:35;;;;;;;0.00;0.00;;;2.80;92.00;;;;;;4998462;28;20137;-64
2024/01/10 08:45:01;;;;;;;0.00;0.00;;;3.10;91.40;;;;;;4997554;28;20100;-64
2024/01/10 08:47:26;;;;;;;0.00;0.00;;;3.30;90.30;;;;;;5002314;28;20034;-65
2024/01/10 08:49:52;;;;;;;0.00;0.00;;;3.60;87.40;;;;;;5000212;28;21083;-63
2024/01/10 08:52:18;;;;;;;0.00;0.00;;;5.00;84.20;;;;;;4997779;28;20025;-63
2024/01/10 08:54:43;;;;;;;0.00;0.00;;;4.80;82.50;;;;;;4996723;28;20030;-63
2024/01/10 08:57:09;;;;;;;0.00;0.00;;;5.10;81.30;;;;;;5002004;28;20030;-64
2024/01/10 08:59:35;;;;;;;0.17;0.17;;;6.10;79.80;;;;;;4999007;28;20044;-64
2024/01/10 09:02:00;;;;;;;0.23;0.23;;;6.70;77.50;;;;;;4997384;28;20044;-63
2024/01/10 09:04:26;;;;;;;0.00;0.00;;;6.70;74.70;;;;;;5000015;28;20497;-63
2024/01/10 09:06:52;;;;;;;0.00;0.00;;;5.90;75.90;;;;;;4996573;28;20045;-64
2024/01/10 09:09:20;;;;;;;0.00;0.00;;;5.60;77.60;;;;;;4994863;28;20029;-63
2024/01/10 09:11:48;;;;;;;0.28;0.28;;;6.20;76.20;;;;;;4997128;28;20018;-63
2024/01/10 09:14:14;;;;;;;0.00;0.00;;;7.20;75.20;;;;;;4994635;28;20025;-64
2024/01/10 09:16:40;;;;;;;;;;;7.30;73.30;;;;;;5027760;28;20068;-63
2024/01/10 09:19:06;;;;;;;0.00;0.00;;;7.80;72.10;;;;;;4992505;28;19956;-66
2024/01/10 09:21:31;;;;;;;0.00;0.00;;;7.50;71.40;;;;;;5000338;28;20029;-62
2024/01/10 09:23:57;;;;;;;0.00;0.00;;;8.00;69.20;;;;;;4991009;28;20034;-65
2024/01/10 09:26:23;;;;;;;0.00;0.00;;;7.70;68.90;;;;;;4994895;28;20018;-64
2024/01/10 09:28:49;;;;;;;0.20;0.20;;;8.80;67.70;;;;;;4998871;28;20057;-64
2024/01/10 09:31:14;;;;;;;0.00;0.00;;;8.30;67.20;;;;;;5014091;28;20521;-66
2024/01/10 09:33:40;;;;;;;0.20;0.20;;;9.30;66.40;;;;;;4996835;28;20030;-66
2024/01/10 09:36:06;;;;;;;0.00;0.00;;;9.60;65.20;;;;;;4993603;28;20520;-66
2024/01/10 09:38:37;;;;;;;0.00;0.00;;;10.20;64.40;;;;;;4997343;28;20030;-66
2024/01/10 09:41:03;;;;;;;0.00;0.00;;;11.10;63.20;;;;;;4997710;28;20458;-66
2024/01/10 09:43:35;;;;;;;;;;;10.00;63.00;;;;;;4992886;28;20101;-66
2024/01/10 09:46:02;;;;;;;0.73;0.65;;;8.80;62.90;;;;;;4998266;28;19912;-66
2024/01/10 09:48:29;;;;;;;0.00;0.00;;;9.70;63.10;;;;;;4994072;28;20060;-67
2024/01/10 09:50:56;;;;;;;0.00;0.00;;;10.30;62.80;;;;;;4997524;28;20065;-64
2024/01/10 09:53:31;;;;;;;1.23;1.20;;;11.60;60.60;;;;;;4995659;28;20033;-66
2024/01/10 09:55:59;;;;;;;0.00;0.00;;;11.00;60.30;;;;;;4997160;28;20061;-66
2024/01/10 09:58:25;;;;;;;0.20;0.20;;;10.40;60.30;;;;;;4996343;28;20018;-66
2024/01/10 10:00:51;;;;;;;0.52;0.52;;;9.40;62.40;;;;;;5002641;28;20025;-66
2024/01/10 10:03:18;;;;;;;1.75;1.45;;;9.60;62.80;;;;;;4996553;28;20026;-65
2024/01/10 10:05:44;;;;;;;0.43;0.43;;;9.20;63.00;;;;;;4998034;28;20072;-66
2024/01/10 10:08:12;;;;;;;0.20;0.20;;;10.10;63.30;;;;;;4995568;28;20033;-66
2024/01/10 10:10:42;;;;;;;3.95;1.77;;;10.10;61.10;;;;;;4999605;28;20076;-66
2024/01/10 10:13:10;;;;;;;0.70;0.70;;;10.10;62.40;;;;;;4996148;28;20029;-66
2024/01/10 10:15:37;;;;;;;0.00;0.00;;;9.90;61.80;;;;;;4998136;28;20057;-66
2024/01/10 10:18:03;;;;;;;0.00;0.00;;;9.90;62.10;;;;;;5001628;28;20043;-66
2024/01/10 10:20:35;;;;;;;0.00;0.00;;;10.20;61.70;;;;;;4996016;28;20026;-67
2024/01/10 10:23:03;;;;;;;0.00;0.00;;;10.80;61.30;;;;;;4999068;28;20080;-66
2024/01/10 10:25:34;;;;;;;0.00;0.00;;;11.20;60.50;;;;;;4999418;28;20026;-66
2024/01/10 10:28:01;;;;;;;0.17;0.17;;;10.70;59.20;;;;;;4996520;28;20029;-66
2024/01/10 10:30:28;;;;;;;0.00;0.00;;;12.00;59.50;;;;;;5001899;28;20022;-66
2024/01/10 10:32:54;;;;;;;0.00;0.00;;;12.10;58.90;;;;;;4994529;28;20080;-66
2024/01/10 10:35:20;;;;;;;;;;;12.60;58.50;;;;;;4998068;28;20457;-66
2024/01/10 10:37:49;;;;;;;0.00;0.00;;;12.50;58.30;;;;;;4997685;28;19999;-66
2024/01/10 10:40:15;;;;;;;0.00;0.00;;;12.10;58.30;;;;;;4998268;28;20040;-64
2024/01/10 10:42:53;;;;;;;0.00;0.00;;;13.00;58.10;;;;;;4999590;28;20030;-63
2024/01/10 10:45:19;;;;;;;0.00;0.00;;;13.20;57.00;;;;;;4992453;28;20145;-66
2024/01/10 10:47:49;;;;;;;0.00;0.00;;;13.20;57.00;;;;;;5000923;28;20022;-63
2024/01/10 10:50:21;;;;;;;0.00;0.00;;;14.00;56.00;;;;;;4993889;28;20101;-64
2024/01/10 10:52:48;;;;;;;0.08;0.08;;;14.00;56.20;;;;;;4996408;28;20673;-63
2024/01/10 10:55:16;;;;;;;0.00;0.00;;;13.20;56.00;;;;;;4999591;28;20022;-64
2024/01/10 10:57:46;;;;;;;0.00;0.00;;;12.80;57.00;;;;;;4997358;28;20500;-63
2024/01/10 11:00:18;;;;;;;0.00;0.00;;;13.60;55.90;;;;;;4999948;28;20139;-63
2024/01/10 11:02:45;;;;;;;0.10;0.10;;;12.70;56.40;;;;;;4997972;28;20076;-64
2024/01/10 11:05:11;;;;;;;0.52;0.52;;;12.50;57.90;;;;;;4997459;28;20029;-63
2024/01/10 11:07:41;;;;;;;0.00;0.00;;;12.90;58.00;;;;;;5028701;28;20536;-64
2024/01/10 11:10:30;;;;;;;0.00;0.00;;;12.10;57.90;;;;;;5000651;28;20049;-65
2024/01/10 11:13:20;;;;;;;0.52;0.52;;;9.60;60.50;;;;;;4996199;28;20049;-63
2024/01/10 11:16:20;;;;;;;0.00;0.00;;;6.50;69.10;;;;;;4994437;28;20143;-63
2024/01/10 11:19:10;;;;;;;0.63;0.63;;;4.80;71.60;;;;;;4996200;28;20037;-63
2024/01/10 11:22:10;;;;;;;0.00;0.00;;;4.00;75.90;;;;;;4998080;28;20024;-63
2024/01/10 11:24:37;;;;;;;0.00;0.00;;;3.60;76.70;;;;;;4999364;28;20088;-65
2024/01/10 11:27:13;;;;;;;2.42;2.20;;;3.10;78.50;;;;;;4995680;28;20113;-63
2024/01/10 11:29:39;;;;;;;0.32;0.32;;;2.50;82.00;;;;;;4996328;28;20034;-65
2024/01/10 11:32:26;;;;;;;0.20;0.20;;;2.30;84.70;;;;;;5002903;28;20030;-65
2024/01/10 11:35:04;;;;;;;0.07;0.07;;;2.20;87.50;;;;;;4995560;28;20694;-63
2024/01/10 11:37:42;;;;;;;0.10;0.10;;;1.90;90.00;;;;;;4997096;28;20116;-63
2024/01/10 11:40:09;;;;;;;0.10;0.10;;;1.90;91.00;;;;;;4998415;28;20021;-62
2024/01/10 11:42:45;;;;;;;0.00;0.00;;;2.00;91.60;;;;;;4998785;28;20484;-63
2024/01/10 11:45:30;;;;;;;1.02;0.98;;;2.20;92.10;;;;;;4996769;28;20034;-63
2024/01/10 11:47:56;;;;;;;0.32;0.32;;;2.00;92.90;;;;;;4997492;28;20699;-64
2024/01/10 11:50:23;;;;;;;0.17;0.17;;;1.80;94.20;;;;;;5029095;28;20064;-63
2024/01/10 11:52:52;;;;;;;;;;;1.50;95.70;;;;;;4992455;28;20462;-64
2024/01/10 11:55:52;;;;;;;0.00;0.00;;;1.20;97.30;;;;;;4997923;28;20004;-65
2024/01/10 11:58:17;;;;;;;0.30;0.30;;;1.30;98.50;;;;;;4996490;28;20404;-63
2024/01/10 12:00:44;;;;;;;0.67;0.67;;;1.50;99.00;;;;;;4994989;28;20068;-63
2024/01/10 12:03:14;;;;;;;0.00;0.00;;;1.20;99.90;;;;;;4998216;28;20068;-65
2024/01/10 12:05:41;;;;;;;0.98;0.98;;;1.30;99.90;;;;;;4997074;28;20050;-64
2024/01/10 12:08:08;;;;;;;0.05;0.05;;;1.40;99.90;;;;;;4998202;28;20033;-62
2024/01/10 12:10:36;;;;;;;0.00;0.00;;;1.50;99.90;;;;;;4997262;28;20072;-64
2024/01/10 12:13:05;;;;;;;0.00;0.00;;;1.80;99.90;;;;;;4996806;28;20478;-64
2024/01/10 12:15:30;;;;;;;0.00;0.00;;;2.00;99.90;;;;;;4993452;28;20022;-63
2024/01/10 12:17:56;;;;;;;0.40;0.40;;;2.20;99.90;;;;;;4997837;28;20439;-63
2024/01/10 12:20:22;;;;;;;0.00;0.00;;;2.00;99.90;;;;;;4996579;28;20428;-64
2024/01/10 12:22:47;;;;;;;0.00;0.00;;;1.90;99.90;;;;;;4996314;28;20042;-64
2024/01/10 12:25:14;;;;;;;0.30;0.30;;;1.80;99.90;;;;;;4997813;28;20131;-62
2024/01/10 12:27:40;;;;;;;0.17;0.17;;;1.30;99.90;;;;;;4997500;28;20022;-63
2024/01/10 12:30:07;;;;;;;0.00;0.00;;;1.30;99.90;;;;;;4998131;28;20685;-63
2024/01/10 12:32:33;;;;;;;0.45;0.25;;;1.20;99.90;;;;;;4992410;28;20057;-63
2024/01/10 12:35:03;;;;;;;0.00;0.00;;;1.30;99.90;;;;;;4996927;28;20761;-63
2024/01/10 12:37:29;;;;;;;0.10;0.10;;;1.30;99.90;;;;;;4995312;28;20041;-63
2024/01/10 12:39:56;;;;;;;0.00;0.00;;;1.40;99.90;;;;;;4992905;28;20018;-63
2024/01/10 12:42:21;;;;;;;0.20;0.20;;;1.60;99.90;;;;;;4998294;28;20026;-63
2024/01/10 12:44:48;;;;;;;2.03;0.35;;;1.70;99.90;;;;;;4993645;28;20033;-62
2024/01/10 12:47:23;;;;;;;0.00;0.00;;;1.60;99.90;;;;;;4996332;28;20034;-62
2024/01/10 12:49:50;;;;;;;0.00;0.00;;;1.50;99.90;;;;;;4999517;28;20018;-64